sensor_id;sensor_type;location;lat;lon;timestamp;temperature;humidity
52016;DHT22;38032;53.326;6.472;2023-06-22T00:02:00;17.50;99.90
52016;DHT22;38032;53.326;6.472;2023-06-22T00:04:27;17.50;99.90
52016;DHT22;38032;53.326;6.472;2023-06-22T00:06:53;17.40;99.90
52016;DHT22;38032;53.326;6.472;2023-06-22T00:09:18;17.50;99.90
52016;DHT22;38032;53.326;6.472;2023-06-22T00:11:45;17.40;99.90
52016;DHT22;38032;53.326;6.472;2023-06-22T00:14:11;17.40;99.90
52016;DHT22;38032;53.326;6.472;2023-06-22T00:16:36;17.30;99.90
52016;DHT22;38032;53.326;6.472;2023-06-22T00:19:02;17.30;99.90
52016;DHT22;38032;53.326;6.472;2023-06-22T00:21:29;17.30;99.90
52016;DHT22;38032;53.326;6.472;2023-06-22T00:23:56;17.30;99.90
52016;DHT22;38032;53.326;6.472;2023-06-22T00:26:23;17.20;99.90
52016;DHT22;38032;53.326;6.472;2023-06-22T00:28:49;17.20;99.90
52016;DHT22;38032;53.326;6.472;2023-06-22T00:31:15;17.20;99.90
52016;DHT22;38032;53.326;6.472;2023-06-22T00:33:41;17.20;99.90
52016;DHT22;38032;53.326;6.472;2023-06-22T00:36:06;17.10;99.90
52016;DHT22;38032;53.326;6.472;2023-06-22T00:38:34;17.10;99.90
52016;DHT22;38032;53.326;6.472;2023-06-22T00:41:00;17.10;99.90
52016;DHT22;38032;53.326;6.472;2023-06-22T00:43:26;17.00;99.90
52016;DHT22;38032;53.326;6.472;2023-06-22T00:45:51;17.00;99.90
52016;DHT22;38032;53.326;6.472;2023-06-22T00:48:18;16.90;99.90
52016;DHT22;38032;53.326;6.472;2023-06-22T00:50:44;16.90;99.90
52016;DHT22;38032;53.326;6.472;2023-06-22T00:53:10;16.80;99.90
52016;DHT22;38032;53.326;6.472;2023-06-22T00:55:41;16.80;99.90
52016;DHT22;38032;53.326;6.472;2023-06-22T00:58:09;16.80;99.90
52016;DHT22;38032;53.326;6.472;2023-06-22T01:00:38;16.70;99.90
52016;DHT22;38032;53.326;6.472;2023-06-22T01:03:04;16.70;99.90
52016;DHT22;38032;53.326;6.472;2023-06-22T01:05:35;16.60;99.90
52016;DHT22;38032;53.326;6.472;2023-06-22T01:08:17;16.50;99.90
52016;DHT22;38032;53.326;6.472;2023-06-22T01:10:53;16.50;99.90
52016;DHT22;38032;53.326;6.472;2023-06-22T01:13:29;16.50;99.90
52016;DHT22;38032;53.326;6.472;2023-06-22T01:16:03;16.40;99.90
52016;DHT22;38032;53.326;6.472;2023-06-22T01:18:32;16.50;99.90
52016;DHT22;38032;53.326;6.472;2023-06-22T01:21:03;16.40;99.90
52016;DHT22;38032;53.326;6.472;2023-06-22T01:24:15;16.40;99.90
52016;DHT22;38032;53.326;6.472;2023-06-22T01:29:33;16.50;99.90
52016;DHT22;38032;53.326;6.472;2023-06-22T01:32:02;16.40;99.90
52016;DHT22;38032;53.326;6.472;2023-06-22T01:34:31;16.50;99.90
52016;DHT22;38032;53.326;6.472;2023-06-22T01:36:59;16.40;99.90
52016;DHT22;38032;53.326;6.472;2023-06-22T01:39:26;16.40;99.90
52016;DHT22;38032;53.326;6.472;2023-06-22T01:41:54;16.40;99.90
52016;DHT22;38032;53.326;6.472;2023-06-22T01:44:20;16.40;99.90
52016;DHT22;38032;53.326;6.472;2023-06-22T01:46:49;16.40;99.90
52016;DHT22;38032;53.326;6.472;2023-06-22T01:49:15;16.40;99.90
52016;DHT22;38032;53.326;6.472;2023-06-22T01:51:41;16.40;99.90
52016;DHT22;38032;53.326;6.472;2023-06-22T01:54:07;16.40;99.90
52016;DHT22;38032;53.326;6.472;2023-06-22T01:56:34;16.40;99.90
52016;DHT22;38032;53.326;6.472;2023-06-22T01:59:10;16.40;99.90
52016;DHT22;38032;53.326;6.472;2023-06-22T02:01:45;16.40;99.90
52016;DHT22;38032;53.326;6.472;2023-06-22T02:04:21;16.40;99.90
52016;DHT22;38032;53.326;6.472;2023-06-22T02:06:51;16.40;99.90
52016;DHT22;38032;53.326;6.472;2023-06-22T02:09:20;16.40;99.90
52016;DHT22;38032;53.326;6.472;2023-06-22T02:11:48;16.40;99.90
52016;DHT22;38032;53.326;6.472;2023-06-22T02:14:18;16.40;99.90
52016;DHT22;38032;53.326;6.472;2023-06-22T02:16:44;16.40;99.90
52016;DHT22;38032;53.326;6.472;2023-06-22T02:19:10;16.40;99.90
52016;DHT22;38032;53.326;6.472;2023-06-22T02:21:36;16.40;99.90
52016;DHT22;38032;53.326;6.472;2023-06-22T02:24:02;16.40;99.90
52016;DHT22;38032;53.326;6.472;2023-06-22T02:26:28;16.40;99.90
52016;DHT22;38032;53.326;6.472;2023-06-22T02:28:54;16.40;99.90
52016;DHT22;38032;53.326;6.472;2023-06-22T02:31:20;16.40;99.90
52016;DHT22;38032;53.326;6.472;2023-06-22T02:33:46;16.40;99.90
52016;DHT22;38032;53.326;6.472;2023-06-22T02:36:13;16.50;99.90
52016;DHT22;38032;53.326;6.472;2023-06-22T02:38:41;16.50;99.90
52016;DHT22;38032;53.326;6.472;2023-06-22T02:41:15;16.50;99.90
52016;DHT22;38032;53.326;6.472;2023-06-22T02:43:45;16.50;99.90
52016;DHT22;38032;53.326;6.472;2023-06-22T02:46:11;16.50;99.90
52016;DHT22;38032;53.326;6.472;2023-06-22T02:48:40;16.50;99.90
52016;DHT22;38032;53.326;6.472;2023-06-22T02:51:06;16.50;99.90
52016;DHT22;38032;53.326;6.472;2023-06-22T02:53:33;16.50;99.90
52016;DHT22;38032;53.326;6.472;2023-06-22T02:55:58;16.50;99.90
52016;DHT22;38032;53.326;6.472;2023-06-22T02:58:27;16.50;99.90
52016;DHT22;38032;53.326;6.472;2023-06-22T03:00:53;16.50;99.90
52016;DHT22;38032;53.326;6.472;2023-06-22T03:03:19;16.50;99.90
52016;DHT22;38032;53.326;6.472;2023-06-22T03:05:45;16.50;99.90
52016;DHT22;38032;53.326;6.472;2023-06-22T03:08:11;16.50;99.90
52016;DHT22;38032;53.326;6.472;2023-06-22T03:10:37;16.50;99.90
52016;DHT22;38032;53.326;6.472;2023-06-22T03:13:03;16.40;99.90
52016;DHT22;38032;53.326;6.472;2023-06-22T03:15:29;16.40;99.90
52016;DHT22;38032;53.326;6.472;2023-06-22T03:17:57;16.40;99.90
52016;DHT22;38032;53.326;6.472;2023-06-22T03:20:22;16.30;99.90
52016;DHT22;38032;53.326;6.472;2023-06-22T03:22:48;16.30;99.90
52016;DHT22;38032;53.326;6.472;2023-06-22T03:25:14;16.30;99.90
52016;DHT22;38032;53.326;6.472;2023-06-22T03:27:42;16.20;99.90
52016;DHT22;38032;53.326;6.472;2023-06-22T03:30:11;16.20;99.90
52016;DHT22;38032;53.326;6.472;2023-06-22T03:32:37;16.20;99.90
52016;DHT22;38032;53.326;6.472;2023-06-22T03:35:04;16.20;99.90
52016;DHT22;38032;53.326;6.472;2023-06-22T03:37:31;16.20;99.90
52016;DHT22;38032;53.326;6.472;2023-06-22T03:39:57;16.20;99.90
52016;DHT22;38032;53.326;6.472;2023-06-22T03:42:23;16.20;99.90
52016;DHT22;38032;53.326;6.472;2023-06-22T03:44:49;16.20;99.90
52016;DHT22;38032;53.326;6.472;2023-06-22T03:47:15;16.20;99.90
52016;DHT22;38032;53.326;6.472;2023-06-22T03:49:41;16.20;99.90
52016;DHT22;38032;53.326;6.472;2023-06-22T03:52:07;16.20;99.90
52016;DHT22;38032;53.326;6.472;2023-06-22T03:54:33;16.30;99.90
52016;DHT22;38032;53.326;6.472;2023-06-22T03:56:59;16.30;99.90
52016;DHT22;38032;53.326;6.472;2023-06-22T03:59:25;16.30;99.90
52016;DHT22;38032;53.326;6.472;2023-06-22T04:01:51;16.30;99.90
52016;DHT22;38032;53.326;6.472;2023-06-22T04:04:18;16.30;99.90
52016;DHT22;38032;53.326;6.472;2023-06-22T04:06:44;16.20;99.90
52016;DHT22;38032;53.326;6.472;2023-06-22T04:09:10;16.30;99.90
52016;DHT22;38032;53.326;6.472;2023-06-22T04:11:36;16.30;99.90
52016;DHT22;38032;53.326;6.472;2023-06-22T04:14:02;16.30;99.90
52016;DHT22;38032;53.326;6.472;2023-06-22T04:16:28;16.30;99.90
52016;DHT22;38032;53.326;6.472;2023-06-22T04:18:54;16.40;99.90
52016;DHT22;38032;53.326;6.472;2023-06-22T04:21:20;16.40;99.90
52016;DHT22;38032;53.326;6.472;2023-06-22T04:23:46;16.40;99.90
52016;DHT22;38032;53.326;6.472;2023-06-22T04:26:13;16.40;99.90
52016;DHT22;38032;53.326;6.472;2023-06-22T04:28:40;16.40;99.90
52016;DHT22;38032;53.326;6.472;2023-06-22T04:31:06;16.40;99.90
52016;DHT22;38032;53.326;6.472;2023-06-22T04:33:32;16.50;99.90
52016;DHT22;38032;53.326;6.472;2023-06-22T04:35:58;16.50;99.90
52016;DHT22;38032;53.326;6.472;2023-06-22T04:38:26;16.50;99.90
52016;DHT22;38032;53.326;6.472;2023-06-22T04:40:53;16.50;99.90
52016;DHT22;38032;53.326;6.472;2023-06-22T04:43:19;16.50;99.90
52016;DHT22;38032;53.326;6.472;2023-06-22T04:45:45;16.60;99.90
52016;DHT22;38032;53.326;6.472;2023-06-22T04:48:11;16.60;99.90
52016;DHT22;38032;53.326;6.472;2023-06-22T04:50:41;16.60;99.90
52016;DHT22;38032;53.326;6.472;2023-06-22T04:53:07;16.60;99.90
52016;DHT22;38032;53.326;6.472;2023-06-22T04:55:35;16.60;99.90
52016;DHT22;38032;53.326;6.472;2023-06-22T04:58:03;16.70;99.90
52016;DHT22;38032;53.326;6.472;2023-06-22T05:00:31;16.70;99.90
52016;DHT22;38032;53.326;6.472;2023-06-22T05:02:57;16.80;99.90
52016;DHT22;38032;53.326;6.472;2023-06-22T05:05:24;16.80;99.90
52016;DHT22;38032;53.326;6.472;2023-06-22T05:07:51;16.90;99.90
52016;DHT22;38032;53.326;6.472;2023-06-22T05:10:19;17.20;99.90
52016;DHT22;38032;53.326;6.472;2023-06-22T05:12:46;17.00;99.90
52016;DHT22;38032;53.326;6.472;2023-06-22T05:15:12;17.10;99.90
52016;DHT22;38032;53.326;6.472;2023-06-22T05:17:38;17.20;99.90
52016;DHT22;38032;53.326;6.472;2023-06-22T05:20:12;17.10;99.90
52016;DHT22;38032;53.326;6.472;2023-06-22T05:22:39;17.20;99.90
52016;DHT22;38032;53.326;6.472;2023-06-22T05:25:09;17.50;99.90
52016;DHT22;38032;53.326;6.472;2023-06-22T05:27:35;18.00;99.90
52016;DHT22;38032;53.326;6.472;2023-06-22T05:30:06;18.20;99.90
52016;DHT22;38032;53.326;6.472;2023-06-22T05:32:32;18.30;99.90
52016;DHT22;38032;53.326;6.472;2023-06-22T05:34:59;18.40;99.90
52016;DHT22;38032;53.326;6.472;2023-06-22T05:37:25;18.40;99.90
52016;DHT22;38032;53.326;6.472;2023-06-22T05:39:52;18.50;99.90
52016;DHT22;38032;53.326;6.472;2023-06-22T05:42:18;18.40;99.90
52016;DHT22;38032;53.326;6.472;2023-06-22T05:44:44;18.40;99.90
52016;DHT22;38032;53.326;6.472;2023-06-22T05:47:09;18.50;99.90
52016;DHT22;38032;53.326;6.472;2023-06-22T05:49:35;18.50;99.90
52016;DHT22;38032;53.326;6.472;2023-06-22T05:52:01;18.60;99.90
52016;DHT22;38032;53.326;6.472;2023-06-22T05:54:28;18.60;99.90
52016;DHT22;38032;53.326;6.472;2023-06-22T05:56:54;18.60;99.90
52016;DHT22;38032;53.326;6.472;2023-06-22T05:59:20;18.60;99.90
52016;DHT22;38032;53.326;6.472;2023-06-22T06:01:45;18.60;99.90
52016;DHT22;38032;53.326;6.472;2023-06-22T06:04:17;18.70;99.90
52016;DHT22;38032;53.326;6.472;2023-06-22T06:06:44;18.70;99.90
52016;DHT22;38032;53.326;6.472;2023-06-22T06:09:10;18.70;99.90
52016;DHT22;38032;53.326;6.472;2023-06-22T06:11:37;18.90;99.90
52016;DHT22;38032;53.326;6.472;2023-06-22T06:14:04;18.70;99.90
52016;DHT22;38032;53.326;6.472;2023-06-22T06:16:29;18.90;99.90
52016;DHT22;38032;53.326;6.472;2023-06-22T06:18:55;18.80;99.90
52016;DHT22;38032;53.326;6.472;2023-06-22T06:21:22;18.90;99.90
52016;DHT22;38032;53.326;6.472;2023-06-22T06:23:48;19.00;99.90
52016;DHT22;38032;53.326;6.472;2023-06-22T06:26:14;19.00;99.90
52016;DHT22;38032;53.326;6.472;2023-06-22T06:28:42;19.10;99.90
52016;DHT22;38032;53.326;6.472;2023-06-22T06:31:09;19.20;99.90
52016;DHT22;38032;53.326;6.472;2023-06-22T06:33:35;19.30;99.90
52016;DHT22;38032;53.326;6.472;2023-06-22T06:36:01;19.60;99.90
52016;DHT22;38032;53.326;6.472;2023-06-22T06:40:56;19.60;99.90
52016;DHT22;38032;53.326;6.472;2023-06-22T06:43:22;19.70;99.90
52016;DHT22;38032;53.326;6.472;2023-06-22T06:45:49;19.80;99.90
52016;DHT22;38032;53.326;6.472;2023-06-22T06:48:15;19.90;99.90
52016;DHT22;38032;53.326;6.472;2023-06-22T06:50:41;20.00;99.90
52016;DHT22;38032;53.326;6.472;2023-06-22T06:53:09;20.10;99.90
52016;DHT22;38032;53.326;6.472;2023-06-22T06:55:35;20.30;99.90
52016;DHT22;38032;53.326;6.472;2023-06-22T06:58:03;20.40;99.90
52016;DHT22;38032;53.326;6.472;2023-06-22T07:00:33;20.40;99.90
52016;DHT22;38032;53.326;6.472;2023-06-22T07:02:59;20.60;99.90
52016;DHT22;38032;53.326;6.472;2023-06-22T07:05:25;20.60;99.90
52016;DHT22;38032;53.326;6.472;2023-06-22T07:07:51;20.70;99.90
52016;DHT22;38032;53.326;6.472;2023-06-22T07:10:16;20.70;99.90
52016;DHT22;38032;53.326;6.472;2023-06-22T07:12:42;20.70;99.90
52016;DHT22;38032;53.326;6.472;2023-06-22T07:15:09;20.70;99.90
52016;DHT22;38032;53.326;6.472;2023-06-22T07:17:36;20.70;99.90
52016;DHT22;38032;53.326;6.472;2023-06-22T07:20:03;20.80;99.90
52016;DHT22;38032;53.326;6.472;2023-06-22T07:22:39;20.80;99.90
52016;DHT22;38032;53.326;6.472;2023-06-22T07:25:06;20.80;99.90
52016;DHT22;38032;53.326;6.472;2023-06-22T07:27:37;20.90;99.90
52016;DHT22;38032;53.326;6.472;2023-06-22T07:30:04;20.90;99.90
52016;DHT22;38032;53.326;6.472;2023-06-22T07:32:30;21.00;99.90
52016;DHT22;38032;53.326;6.472;2023-06-22T07:34:56;21.10;99.90
52016;DHT22;38032;53.326;6.472;2023-06-22T07:37:22;21.20;99.90
52016;DHT22;38032;53.326;6.472;2023-06-22T07:39:48;21.20;99.90
52016;DHT22;38032;53.326;6.472;2023-06-22T07:42:16;21.20;99.90
52016;DHT22;38032;53.326;6.472;2023-06-22T07:44:44;21.30;99.90
52016;DHT22;38032;53.326;6.472;2023-06-22T07:47:10;21.30;99.90
52016;DHT22;38032;53.326;6.472;2023-06-22T07:49:36;21.40;99.90
52016;DHT22;38032;53.326;6.472;2023-06-22T07:52:02;21.40;99.90
52016;DHT22;38032;53.326;6.472;2023-06-22T07:54:28;21.50;99.90
52016;DHT22;38032;53.326;6.472;2023-06-22T07:56:54;21.50;99.90
52016;DHT22;38032;53.326;6.472;2023-06-22T07:59:20;21.50;99.90
52016;DHT22;38032;53.326;6.472;2023-06-22T08:01:46;21.70;99.90
52016;DHT22;38032;53.326;6.472;2023-06-22T08:04:15;21.70;99.90
52016;DHT22;38032;53.326;6.472;2023-06-22T08:06:41;21.70;99.90
52016;DHT22;38032;53.326;6.472;2023-06-22T08:09:07;21.70;99.90
52016;DHT22;38032;53.326;6.472;2023-06-22T08:11:33;21.70;99.90
52016;DHT22;38032;53.326;6.472;2023-06-22T08:13:59;21.80;99.90
52016;DHT22;38032;53.326;6.472;2023-06-22T08:16:25;21.80;99.90
52016;DHT22;38032;53.326;6.472;2023-06-22T08:18:51;21.90;99.90
52016;DHT22;38032;53.326;6.472;2023-06-22T08:21:17;21.90;99.90
52016;DHT22;38032;53.326;6.472;2023-06-22T08:23:43;22.00;99.90
52016;DHT22;38032;53.326;6.472;2023-06-22T08:26:09;22.00;99.90
52016;DHT22;38032;53.326;6.472;2023-06-22T08:28:35;22.00;99.90
52016;DHT22;38032;53.326;6.472;2023-06-22T08:31:02;22.00;99.90
52016;DHT22;38032;53.326;6.472;2023-06-22T08:33:28;22.00;99.90
52016;DHT22;38032;53.326;6.472;2023-06-22T08:35:57;22.10;99.90
52016;DHT22;38032;53.326;6.472;2023-06-22T08:38:23;22.20;99.90
52016;DHT22;38032;53.326;6.472;2023-06-22T08:40:50;22.30;99.90
52016;DHT22;38032;53.326;6.472;2023-06-22T08:43:15;22.40;99.90
52016;DHT22;38032;53.326;6.472;2023-06-22T08:45:41;22.40;99.90
52016;DHT22;38032;53.326;6.472;2023-06-22T08:48:07;22.40;99.90
52016;DHT22;38032;53.326;6.472;2023-06-22T08:50:33;22.50;99.90
52016;DHT22;38032;53.326;6.472;2023-06-22T08:52:59;22.60;99.90
52016;DHT22;38032;53.326;6.472;2023-06-22T08:55:25;22.60;99.90
52016;DHT22;38032;53.326;6.472;2023-06-22T08:57:51;22.80;99.90
52016;DHT22;38032;53.326;6.472;2023-06-22T09:00:17;22.80;99.90
52016;DHT22;38032;53.326;6.472;2023-06-22T09:02:46;22.90;99.90
52016;DHT22;38032;53.326;6.472;2023-06-22T09:05:12;22.90;99.90
52016;DHT22;38032;53.326;6.472;2023-06-22T09:07:38;22.90;99.90
52016;DHT22;38032;53.326;6.472;2023-06-22T09:10:05;23.00;99.90
52016;DHT22;38032;53.326;6.472;2023-06-22T09:12:31;23.10;99.90
52016;DHT22;38032;53.326;6.472;2023-06-22T09:14:58;23.10;99.90
52016;DHT22;38032;53.326;6.472;2023-06-22T09:17:26;23.20;99.90
52016;DHT22;38032;53.326;6.472;2023-06-22T09:19:53;23.80;99.90
52016;DHT22;38032;53.326;6.472;2023-06-22T09:22:19;24.90;99.90
52016;DHT22;38032;53.326;6.472;2023-06-22T09:24:44;25.40;99.90
52016;DHT22;38032;53.326;6.472;2023-06-22T09:27:10;26.70;99.90
52016;DHT22;38032;53.326;6.472;2023-06-22T09:29:36;27.80;97.60
52016;DHT22;38032;53.326;6.472;2023-06-22T09:32:02;29.60;91.80
52016;DHT22;38032;53.326;6.472;2023-06-22T09:34:28;30.10;87.60
52016;DHT22;38032;53.326;6.472;2023-06-22T09:36:54;31.30;81.90
52016;DHT22;38032;53.326;6.472;2023-06-22T09:39:20;31.90;80.40
52016;DHT22;38032;53.326;6.472;2023-06-22T09:41:46;32.10;77.80
52016;DHT22;38032;53.326;6.472;2023-06-22T09:44:12;32.60;75.40
52016;DHT22;38032;53.326;6.472;2023-06-22T09:46:38;33.10;72.70
52016;DHT22;38032;53.326;6.472;2023-06-22T09:49:04;33.60;70.70
52016;DHT22;38032;53.326;6.472;2023-06-22T09:51:30;33.80;68.40
52016;DHT22;38032;53.326;6.472;2023-06-22T09:53:56;34.10;66.40
52016;DHT22;38032;53.326;6.472;2023-06-22T09:56:22;34.30;65.10
52016;DHT22;38032;53.326;6.472;2023-06-22T09:58:48;34.40;63.50
52016;DHT22;38032;53.326;6.472;2023-06-22T10:01:18;34.60;62.80
52016;DHT22;38032;53.326;6.472;2023-06-22T10:03:44;34.70;61.80
52016;DHT22;38032;53.326;6.472;2023-06-22T10:06:10;34.90;61.50
52016;DHT22;38032;53.326;6.472;2023-06-22T10:08:36;34.80;61.30
52016;DHT22;38032;53.326;6.472;2023-06-22T10:11:03;34.60;60.80
52016;DHT22;38032;53.326;6.472;2023-06-22T10:13:29;34.40;61.70
52016;DHT22;38032;53.326;6.472;2023-06-22T10:15:55;34.30;61.20
52016;DHT22;38032;53.326;6.472;2023-06-22T10:18:21;34.20;60.80
52016;DHT22;38032;53.326;6.472;2023-06-22T10:20:48;34.20;60.30
52016;DHT22;38032;53.326;6.472;2023-06-22T10:23:17;34.20;60.80
52016;DHT22;38032;53.326;6.472;2023-06-22T10:25:43;34.30;60.90
52016;DHT22;38032;53.326;6.472;2023-06-22T10:28:09;34.20;60.40
52016;DHT22;38032;53.326;6.472;2023-06-22T10:30:35;34.00;61.00
52016;DHT22;38032;53.326;6.472;2023-06-22T10:33:01;33.70;60.70
52016;DHT22;38032;53.326;6.472;2023-06-22T10:35:26;33.60;61.40
52016;DHT22;38032;53.326;6.472;2023-06-22T10:37:53;33.40;61.80
52016;DHT22;38032;53.326;6.472;2023-06-22T10:40:20;33.10;62.60
52016;DHT22;38032;53.326;6.472;2023-06-22T10:42:46;32.90;62.00
52016;DHT22;38032;53.326;6.472;2023-06-22T10:45:12;32.80;62.10
52016;DHT22;38032;53.326;6.472;2023-06-22T10:47:38;32.40;61.90
52016;DHT22;38032;53.326;6.472;2023-06-22T10:50:04;32.00;62.70
52016;DHT22;38032;53.326;6.472;2023-06-22T10:52:31;31.70;63.40
52016;DHT22;38032;53.326;6.472;2023-06-22T10:54:57;31.40;64.70
52016;DHT22;38032;53.326;6.472;2023-06-22T10:57:23;31.00;65.40
52016;DHT22;38032;53.326;6.472;2023-06-22T10:59:49;30.60;65.90
52016;DHT22;38032;53.326;6.472;2023-06-22T11:02:15;30.30;66.30
52016;DHT22;38032;53.326;6.472;2023-06-22T11:04:41;30.10;66.80
52016;DHT22;38032;53.326;6.472;2023-06-22T11:07:07;30.00;67.70
52016;DHT22;38032;53.326;6.472;2023-06-22T11:09:33;29.60;68.90
52016;DHT22;38032;53.326;6.472;2023-06-22T11:11:59;29.30;69.20
52016;DHT22;38032;53.326;6.472;2023-06-22T11:14:25;29.00;69.90
52016;DHT22;38032;53.326;6.472;2023-06-22T11:16:51;28.80;71.10
52016;DHT22;38032;53.326;6.472;2023-06-22T11:19:18;28.60;70.80
52016;DHT22;38032;53.326;6.472;2023-06-22T11:21:44;28.40;71.40
52016;DHT22;38032;53.326;6.472;2023-06-22T11:24:10;28.30;71.60
52016;DHT22;38032;53.326;6.472;2023-06-22T11:26:36;28.00;71.90
52016;DHT22;38032;53.326;6.472;2023-06-22T11:29:02;27.80;72.70
52016;DHT22;38032;53.326;6.472;2023-06-22T11:31:32;27.70;75.00
52016;DHT22;38032;53.326;6.472;2023-06-22T11:33:58;27.50;75.60
52016;DHT22;38032;53.326;6.472;2023-06-22T11:36:25;27.20;76.60
52016;DHT22;38032;53.326;6.472;2023-06-22T11:38:51;27.00;77.00
52016;DHT22;38032;53.326;6.472;2023-06-22T11:41:17;26.90;78.50
52016;DHT22;38032;53.326;6.472;2023-06-22T11:43:43;26.70;80.10
52016;DHT22;38032;53.326;6.472;2023-06-22T11:46:10;26.40;80.50
52016;DHT22;38032;53.326;6.472;2023-06-22T11:48:36;26.20;81.40
52016;DHT22;38032;53.326;6.472;2023-06-22T11:51:02;26.10;84.30
52016;DHT22;38032;53.326;6.472;2023-06-22T11:53:29;25.90;84.80
52016;DHT22;38032;53.326;6.472;2023-06-22T11:55:55;25.70;85.70
52016;DHT22;38032;53.326;6.472;2023-06-22T11:58:22;25.60;85.80
52016;DHT22;38032;53.326;6.472;2023-06-22T12:00:48;25.60;89.00
52016;DHT22;38032;53.326;6.472;2023-06-22T12:03:14;25.60;89.20
52016;DHT22;38032;53.326;6.472;2023-06-22T12:05:42;25.70;89.60
52016;DHT22;38032;53.326;6.472;2023-06-22T12:08:08;25.60;90.30
52016;DHT22;38032;53.326;6.472;2023-06-22T12:10:34;25.60;90.10
52016;DHT22;38032;53.326;6.472;2023-06-22T12:13:00;25.50;88.20
52016;DHT22;38032;53.326;6.472;2023-06-22T12:15:27;25.40;90.20
52016;DHT22;38032;53.326;6.472;2023-06-22T12:17:53;25.30;90.30
52016;DHT22;38032;53.326;6.472;2023-06-22T12:20:19;25.10;90.50
52016;DHT22;38032;53.326;6.472;2023-06-22T12:22:45;25.10;90.90
52016;DHT22;38032;53.326;6.472;2023-06-22T12:25:11;24.90;90.80
52016;DHT22;38032;53.326;6.472;2023-06-22T12:27:37;24.80;91.70
52016;DHT22;38032;53.326;6.472;2023-06-22T12:30:04;24.70;92.20
52016;DHT22;38032;53.326;6.472;2023-06-22T12:32:30;24.60;93.00
52016;DHT22;38032;53.326;6.472;2023-06-22T12:34:56;24.60;93.20
52016;DHT22;38032;53.326;6.472;2023-06-22T12:37:22;24.50;92.50
52016;DHT22;38032;53.326;6.472;2023-06-22T12:39:48;24.40;92.90
52016;DHT22;38032;53.326;6.472;2023-06-22T12:42:15;24.30;92.90
52016;DHT22;38032;53.326;6.472;2023-06-22T12:44:41;24.20;92.60
52016;DHT22;38032;53.326;6.472;2023-06-22T12:47:08;24.20;92.80
52016;DHT22;38032;53.326;6.472;2023-06-22T12:49:34;24.10;93.00
52016;DHT22;38032;53.326;6.472;2023-06-22T12:52:01;24.10;93.70
52016;DHT22;38032;53.326;6.472;2023-06-22T12:54:27;24.00;93.70
52016;DHT22;38032;53.326;6.472;2023-06-22T12:56:55;24.00;92.60
52016;DHT22;38032;53.326;6.472;2023-06-22T12:59:21;23.90;91.80
52016;DHT22;38032;53.326;6.472;2023-06-22T13:01:47;23.80;92.20
52016;DHT22;38032;53.326;6.472;2023-06-22T13:04:13;23.80;92.90
52016;DHT22;38032;53.326;6.472;2023-06-22T13:06:41;23.70;92.90
52016;DHT22;38032;53.326;6.472;2023-06-22T13:09:08;23.70;92.90
52016;DHT22;38032;53.326;6.472;2023-06-22T13:11:34;23.70;92.50
52016;DHT22;38032;53.326;6.472;2023-06-22T13:14:00;23.60;92.90
52016;DHT22;38032;53.326;6.472;2023-06-22T13:16:26;23.50;93.10
52016;DHT22;38032;53.326;6.472;2023-06-22T13:18:52;23.50;93.50
52016;DHT22;38032;53.326;6.472;2023-06-22T13:21:18;23.40;94.30
52016;DHT22;38032;53.326;6.472;2023-06-22T13:23:44;23.40;95.00
52016;DHT22;38032;53.326;6.472;2023-06-22T13:26:10;23.30;95.30
52016;DHT22;38032;53.326;6.472;2023-06-22T13:28:36;23.30;95.80
52016;DHT22;38032;53.326;6.472;2023-06-22T13:31:02;23.20;95.90
52016;DHT22;38032;53.326;6.472;2023-06-22T13:33:27;23.20;95.70
52016;DHT22;38032;53.326;6.472;2023-06-22T13:35:53;23.10;95.90
52016;DHT22;38032;53.326;6.472;2023-06-22T13:38:19;23.10;96.20
52016;DHT22;38032;53.326;6.472;2023-06-22T13:40:45;23.10;96.30
52016;DHT22;38032;53.326;6.472;2023-06-22T13:43:13;23.00;95.90
52016;DHT22;38032;53.326;6.472;2023-06-22T13:45:39;23.00;96.10
52016;DHT22;38032;53.326;6.472;2023-06-22T13:48:05;22.90;96.30
52016;DHT22;38032;53.326;6.472;2023-06-22T13:50:31;22.80;96.70
52016;DHT22;38032;53.326;6.472;2023-06-22T13:52:57;22.80;96.90
52016;DHT22;38032;53.326;6.472;2023-06-22T13:55:23;22.70;96.00
52016;DHT22;38032;53.326;6.472;2023-06-22T13:57:49;22.60;95.70
52016;DHT22;38032;53.326;6.472;2023-06-22T14:00:15;22.60;96.50
52016;DHT22;38032;53.326;6.472;2023-06-22T14:02:41;22.60;96.90
52016;DHT22;38032;53.326;6.472;2023-06-22T14:05:08;22.50;96.90
52016;DHT22;38032;53.326;6.472;2023-06-22T14:07:34;22.50;97.50
52016;DHT22;38032;53.326;6.472;2023-06-22T14:10:00;22.50;97.50
52016;DHT22;38032;53.326;6.472;2023-06-22T14:12:26;22.40;96.60
52016;DHT22;38032;53.326;6.472;2023-06-22T14:14:52;22.40;96.10
52016;DHT22;38032;53.326;6.472;2023-06-22T14:17:18;22.40;96.60
52016;DHT22;38032;53.326;6.472;2023-06-22T14:19:49;22.30;97.10
52016;DHT22;38032;53.326;6.472;2023-06-22T14:22:19;22.30;97.70
52016;DHT22;38032;53.326;6.472;2023-06-22T14:24:46;22.30;97.60
52016;DHT22;38032;53.326;6.472;2023-06-22T14:27:11;22.20;97.30
52016;DHT22;38032;53.326;6.472;2023-06-22T14:29:37;22.20;97.10
52016;DHT22;38032;53.326;6.472;2023-06-22T14:32:04;22.10;97.30
52016;DHT22;38032;53.326;6.472;2023-06-22T14:34:32;22.10;97.90
52016;DHT22;38032;53.326;6.472;2023-06-22T14:36:58;22.00;98.70
52016;DHT22;38032;53.326;6.472;2023-06-22T14:39:24;21.90;98.60
52016;DHT22;38032;53.326;6.472;2023-06-22T14:41:50;21.90;99.10
52016;DHT22;38032;53.326;6.472;2023-06-22T14:44:16;21.90;99.10
52016;DHT22;38032;53.326;6.472;2023-06-22T14:46:42;21.90;98.90
52016;DHT22;38032;53.326;6.472;2023-06-22T14:49:08;21.80;98.50
52016;DHT22;38032;53.326;6.472;2023-06-22T14:51:34;21.70;98.30
52016;DHT22;38032;53.326;6.472;2023-06-22T14:53:59;21.60;97.80
52016;DHT22;38032;53.326;6.472;2023-06-22T14:56:25;21.50;97.70
52016;DHT22;38032;53.326;6.472;2023-06-22T14:58:51;21.40;97.10
52016;DHT22;38032;53.326;6.472;2023-06-22T15:01:17;21.30;97.10
52016;DHT22;38032;53.326;6.472;2023-06-22T15:03:44;21.30;97.00
52016;DHT22;38032;53.326;6.472;2023-06-22T15:06:09;21.20;98.00
52016;DHT22;38032;53.326;6.472;2023-06-22T15:08:38;21.20;98.40
52016;DHT22;38032;53.326;6.472;2023-06-22T15:11:04;21.20;99.00
52016;DHT22;38032;53.326;6.472;2023-06-22T15:13:31;21.20;99.50
52016;DHT22;38032;53.326;6.472;2023-06-22T15:16:00;21.30;99.90
52016;DHT22;38032;53.326;6.472;2023-06-22T15:18:26;21.40;99.90
52016;DHT22;38032;53.326;6.472;2023-06-22T15:20:53;21.40;99.90
52016;DHT22;38032;53.326;6.472;2023-06-22T15:23:19;21.40;99.90
52016;DHT22;38032;53.326;6.472;2023-06-22T15:25:45;21.40;99.90
52016;DHT22;38032;53.326;6.472;2023-06-22T15:28:12;21.40;99.90
52016;DHT22;38032;53.326;6.472;2023-06-22T15:30:38;21.30;99.90
52016;DHT22;38032;53.326;6.472;2023-06-22T15:33:04;21.30;99.90